Time;durP1;ratioP1;P1;durP2;ratioP2;P2;SDS_P1;SDS_P2;PMS_P1;PMS_P2;Temp;Humidity;BMP_temperature;BMP_pressure;BME280_temperature;BME280_humidity;BME280_pressure;Samples;Min_cycle;Max_cycle;Signal;HPM_P1;HPM_P2
2023/12/12 00:00:04;;;;;;;4.38;1.80;;;;;;;6.45;100.00;100360.44;5073344;28;20036;-71
2023/12/12 00:02:30;;;;;;;6.05;1.42;;;;;;;6.49;100.00;100354.06;5070233;28;20037;-70
2023/12/12 00:04:55;;;;;;;8.85;1.77;;;;;;;6.48;100.00;100368.78;5076836;28;20082;-71
2023/12/12 00:07:21;;;;;;;7.43;2.00;;;;;;;6.45;100.00;100363.03;5070160;28;20460;-71
2023/12/12 00:09:46;;;;;;;7.35;1.75;;;;;;;6.40;100.00;100359.97;5074839;28;20029;-71
2023/12/12 00:12:12;;;;;;;4.35;1.73;;;;;;;6.31;100.00;100346.81;5074430;28;20033;-71
2023/12/12 00:14:37;;;;;;;5.53;1.35;;;;;;;6.26;100.00;100338.56;5106322;27;20473;-71
2023/12/12 00:17:03;;;;;;;6.55;1.52;;;;;;;6.22;100.00;100334.59;5072666;28;20473;-71
2023/12/12 00:19:29;;;;;;;6.85;1.85;;;;;;;6.14;100.00;100336.16;5073908;28;20074;-71
2023/12/12 00:21:54;;;;;;;6.40;1.27;;;;;;;6.09;100.00;100331.31;5073006;28;20064;-71
2023/12/12 00:24:19;;;;;;;4.80;1.15;;;;;;;6.09;100.00;100341.66;5070604;28;20031;-71
2023/12/12 00:26:45;;;;;;;3.05;0.93;;;;;;;6.11;100.00;100341.56;5069192;28;20029;-71
2023/12/12 00:29:10;;;;;;;4.28;1.55;;;;;;;6.14;100.00;100330.97;5070689;28;20051;-71
2023/12/12 00:31:36;;;;;;;2.72;1.35;;;;;;;6.14;100.00;100321.44;5072804;28;20040;-71
2023/12/12 00:34:01;;;;;;;3.90;1.50;;;;;;;6.22;100.00;100326.00;5080504;28;20124;-71
2023/12/12 00:36:26;;;;;;;3.72;1.40;;;;;;;6.24;100.00;100312.00;5070261;28;20132;-71
2023/12/12 00:38:52;;;;;;;4.55;1.40;;;;;;;6.23;100.00;100312.94;5071103;28;20050;-71
2023/12/12 00:41:17;;;;;;;7.35;1.45;;;;;;;6.26;100.00;100322.22;5074010;28;20034;-71
2023/12/12 00:43:43;;;;;;;4.43;1.23;;;;;;;6.24;100.00;100319.75;5070952;28;20056;-71
2023/12/12 00:46:10;;;;;;;4.70;1.30;;;;;;;6.23;100.00;100331.06;5075329;28;20115;-71
2023/12/12 00:48:35;;;;;;;4.63;1.17;;;;;;;6.24;100.00;100330.09;5070700;28;20466;-71
2023/12/12 00:51:01;;;;;;;4.55;1.38;;;;;;;6.30;100.00;100344.34;5070693;28;20108;-71
2023/12/12 00:53:27;;;;;;;6.25;1.45;;;;;;;6.31;100.00;100353.75;5073783;28;20060;-71
2023/12/12 00:55:52;;;;;;;4.78;1.63;;;;;;;6.28;100.00;100352.22;5075720;28;20028;-71
2023/12/12 00:58:18;;;;;;;4.30;1.08;;;;;;;6.28;100.00;100370.31;5073435;28;20028;-71
2023/12/12 01:00:43;;;;;;;2.40;1.15;;;;;;;6.30;100.00;100370.22;5072883;28;20048;-71
2023/12/12 01:03:09;;;;;;;4.35;1.25;;;;;;;6.30;100.00;100360.69;5072757;28;20036;-71
2023/12/12 01:05:34;;;;;;;9.77;1.23;;;;;;;6.29;100.00;100373.75;5069780;28;20040;-71
2023/12/12 01:07:59;;;;;;;6.72;1.05;;;;;;;6.29;100.00;100374.56;5070478;28;20025;-71
2023/12/12 01:10:25;;;;;;;3.33;1.17;;;;;;;6.31;100.00;100364.09;5066391;28;20024;-71
2023/12/12 01:12:50;;;;;;;5.50;1.15;;;;;;;6.30;100.00;100365.03;5071134;28;20036;-71
2023/12/12 01:15:16;;;;;;;4.13;1.38;;;;;;;6.29;100.00;100369.38;5070728;28;20031;-71
2023/12/12 01:17:41;;;;;;;4.30;1.33;;;;;;;6.30;100.00;100381.38;5070321;28;20469;-71
2023/12/12 01:20:08;;;;;;;6.47;1.00;;;;;;;6.30;100.00;100380.56;5079115;28;20040;-71
2023/12/12 01:22:34;;;;;;;1.83;0.80;;;;;;;6.31;100.00;100372.69;5069223;28;20432;-71
2023/12/12 01:24:59;;;;;;;3.78;0.93;;;;;;;6.36;100.00;100380.09;5070297;28;20055;-71
2023/12/12 01:27:25;;;;;;;4.25;0.75;;;;;;;6.44;100.00;100398.44;5069843;28;20033;-71
2023/12/12 01:29:50;;;;;;;4.10;1.45;;;;;;;6.53;99.57;100396.91;5070943;28;20074;-71
2023/12/12 01:32:16;;;;;;;5.68;0.55;;;;;;;6.57;99.74;100390.53;5067524;28;20028;-70
2023/12/12 01:34:41;;;;;;;4.43;0.63;;;;;;;6.59;99.42;100386.06;5068182;28;20063;-71
2023/12/12 01:37:07;;;;;;;3.28;0.90;;;;;;;6.60;98.52;100398.06;5070369;28;20107;-71
2023/12/12 01:39:32;;;;;;;2.15;0.70;;;;;;;6.63;98.67;100408.16;5071140;28;20044;-71
2023/12/12 01:41:58;;;;;;;6.32;0.80;;;;;;;6.65;98.75;100406.25;5070301;28;20039;-71
2023/12/12 01:44:23;;;;;;;3.42;0.57;;;;;;;6.64;98.19;100399.44;5069593;28;20028;-71
2023/12/12 01:46:51;;;;;;;3.15;1.05;;;;;;;6.65;98.54;100403.69;5070583;28;20032;-71
2023/12/12 01:49:17;;;;;;;4.53;0.80;;;;;;;6.66;98.30;100407.91;5068496;28;20064;-71
2023/12/12 01:51:45;;;;;;;2.85;1.23;;;;;;;6.65;98.45;100407.09;5068615;28;20154;-71
2023/12/12 01:54:11;;;;;;;5.13;0.90;;;;;;;6.65;98.08;100406.25;5069692;28;20028;-71
2023/12/12 01:56:37;;;;;;;3.17;0.88;;;;;;;6.63;98.03;100393.44;5069736;28;21179;-71
2023/12/12 01:59:04;;;;;;;3.05;0.75;;;;;;;6.61;97.86;100384.19;5070406;28;20124;-71
2023/12/12 02:01:30;;;;;;;2.35;0.60;;;;;;;6.59;97.83;100391.25;5068857;28;20131;-71
2023/12/12 02:03:57;;;;;;;5.68;1.38;;;;;;;6.59;98.20;100396.41;5072940;28;20103;-71
2023/12/12 02:06:23;;;;;;;3.75;0.73;;;;;;;6.60;98.25;100403.25;5071263;28;20032;-71
2023/12/12 02:08:49;;;;;;;2.22;0.50;;;;;;;6.64;98.26;100386.50;5070991;28;20366;-71
2023/12/12 02:11:16;;;;;;;8.82;1.13;;;;;;;6.69;98.20;100375.78;5069750;28;20059;-71
2023/12/12 02:13:42;;;;;;;4.85;0.77;;;;;;;6.74;98.30;100374.47;5066950;28;20040;-71
2023/12/12 02:16:08;;;;;;;4.30;0.88;;;;;;;6.78;97.96;100362.94;5070519;28;20028;-71
2023/12/12 02:18:34;;;;;;;3.00;0.77;;;;;;;6.76;98.49;100362.22;5068735;28;20070;-71
2023/12/12 02:21:00;;;;;;;2.38;0.80;;;;;;;6.78;98.20;100365.50;5072981;28;20063;-71
2023/12/12 02:23:29;;;;;;;5.50;1.10;;;;;;;6.79;98.21;100366.34;5068046;28;21999;-71
2023/12/12 02:25:55;;;;;;;4.05;0.75;;;;;;;6.73;98.33;100378.00;5069319;28;20021;-71
2023/12/12 02:28:22;;;;;;;6.05;0.90;;;;;;;6.71;98.71;100385.06;5070502;28;20035;-70
2023/12/12 02:30:47;;;;;;;2.63;0.77;;;;;;;6.69;98.52;100381.78;5073467;28;20032;-71
2023/12/12 02:33:12;;;;;;;2.08;0.60;;;;;;;6.68;99.01;100395.66;5069813;28;20102;-71
2023/12/12 02:35:38;;;;;;;4.13;0.95;;;;;;;6.69;99.10;100378.38;5067781;28;20055;-71
2023/12/12 02:38:03;;;;;;;3.38;0.90;;;;;;;6.68;98.79;100372.38;5070465;28;20484;-71
2023/12/12 02:40:29;;;;;;;7.18;0.80;;;;;;;6.67;97.97;100378.47;5070334;28;20036;-71
2023/12/12 02:42:54;;;;;;;2.88;0.63;;;;;;;6.64;97.96;100378.72;5069198;28;20032;-71
2023/12/12 02:45:20;;;;;;;3.10;0.75;;;;;;;6.63;97.81;100380.50;5072845;28;20035;-71
2023/12/12 02:47:45;;;;;;;3.97;0.55;;;;;;;6.69;96.84;100376.59;5074027;28;20359;-71
2023/12/12 02:50:11;;;;;;;1.55;0.60;;;;;;;6.70;97.25;100367.06;5073871;28;20477;-71
2023/12/12 02:52:36;;;;;;;2.00;0.68;;;;;;;6.67;96.96;100368.13;5075474;28;20067;-71
2023/12/12 02:55:02;;;;;;;4.28;0.88;;;;;;;6.63;97.53;100356.38;5071522;28;20115;-71
2023/12/12 02:57:28;;;;;;;3.50;0.98;;;;;;;6.63;96.46;100366.72;5072390;28;20031;-71
2023/12/12 02:59:53;;;;;;;2.00;0.70;;;;;;;6.61;96.92;100372.06;5079275;28;20036;-71
2023/12/12 03:02:19;;;;;;;5.55;0.93;;;;;;;6.62;97.19;100365.91;5071230;28;20036;-70
2023/12/12 03:04:45;;;;;;;3.22;0.60;;;;;;;6.66;96.73;100356.13;5073537;28;20033;-71
2023/12/12 03:07:11;;;;;;;3.78;0.73;;;;;;;6.66;97.17;100346.59;5072647;28;20032;-71
2023/12/12 03:09:37;;;;;;;2.60;0.55;;;;;;;6.66;96.48;100333.66;5071802;28;20040;-71
2023/12/12 03:12:03;;;;;;;1.45;0.43;;;;;;;6.68;96.97;100340.47;5070352;28;20044;-71
2023/12/12 03:14:29;;;;;;;2.08;0.77;;;;;;;6.69;96.96;100345.53;5072774;28;20035;-71
2023/12/12 03:16:55;;;;;;;2.08;0.63;;;;;;;6.73;96.44;100343.53;5073200;28;20059;-71
2023/12/12 03:19:21;;;;;;;2.10;0.40;;;;;;;6.75;97.24;100355.41;5072650;28;20032;-71
2023/12/12 03:21:46;;;;;;;2.50;0.60;;;;;;;6.82;97.56;100366.09;5072941;28;20028;-71
2023/12/12 03:24:12;;;;;;;2.65;0.70;;;;;;;6.84;97.67;100353.84;5071843;28;20047;-71
2023/12/12 03:26:37;;;;;;;2.40;0.63;;;;;;;6.87;96.81;100351.00;5072004;28;20112;-71
2023/12/12 03:29:03;;;;;;;2.53;0.63;;;;;;;6.86;96.62;100359.72;5074392;28;20380;-71
2023/12/12 03:31:28;;;;;;;2.45;0.68;;;;;;;6.83;96.71;100358.19;5071460;28;20089;-71
2023/12/12 03:33:54;;;;;;;2.88;0.75;;;;;;;6.80;97.07;100352.44;5071120;28;20040;-71
2023/12/12 03:36:19;;;;;;;3.03;0.77;;;;;;;6.78;96.51;100339.63;5074859;28;20066;-70
2023/12/12 03:38:44;;;;;;;1.33;0.32;;;;;;;6.74;96.92;100337.41;5070502;28;20028;-71
2023/12/12 03:41:11;;;;;;;2.97;0.50;;;;;;;6.65;97.42;100337.19;5071886;28;20042;-71
2023/12/12 03:43:36;;;;;;;2.25;0.45;;;;;;;6.64;97.25;100332.94;5077212;28;20067;-71
2023/12/12 03:46:03;;;;;;;2.92;0.40;;;;;;;6.61;97.33;100332.41;5073451;28;20056;-71
2023/12/12 03:48:28;;;;;;;3.42;0.60;;;;;;;6.58;97.83;100330.06;5066083;28;20025;-70
2023/12/12 03:50:54;;;;;;;3.10;0.70;;;;;;;6.59;97.87;100327.34;5078665;28;20418;-71
2023/12/12 03:53:19;;;;;;;1.95;0.30;;;;;;;6.61;98.40;100327.22;5077204;28;20059;-70
2023/12/12 03:55:45;;;;;;;4.10;0.50;;;;;;;6.60;98.26;100325.56;5072617;28;20565;-71
2023/12/12 03:58:10;;;;;;;4.32;0.93;;;;;;;6.62;98.12;100336.59;5078022;28;20393;-71
2023/12/12 04:00:36;;;;;;;2.53;0.55;;;;;;;6.65;98.15;100344.13;5071662;28;20036;-71
2023/12/12 04:03:01;;;;;;;2.53;0.70;;;;;;;6.68;98.55;100341.28;5069385;28;20097;-71
2023/12/12 04:05:27;;;;;;;1.83;0.43;;;;;;;6.71;97.90;100341.06;5077358;28;20040;-71
2023/12/12 04:07:52;;;;;;;5.38;0.43;;;;;;;6.74;97.48;100332.22;5072063;28;20025;-71
2023/12/12 04:10:18;;;;;;;1.90;0.40;;;;;;;6.77;97.60;100332.78;5068383;28;20048;-71
2023/12/12 04:12:43;;;;;;;1.73;0.40;;;;;;;6.79;97.13;100341.25;5071441;28;20056;-71
2023/12/12 04:15:09;;;;;;;2.50;0.70;;;;;;;6.79;96.37;100332.69;5071831;28;20024;-71
2023/12/12 04:17:35;;;;;;;1.60;0.30;;;;;;;6.79;96.84;100333.50;5071408;28;20456;-71
2023/12/12 04:20:00;;;;;;;4.03;0.52;;;;;;;6.79;97.05;100343.84;5073687;28;20123;-71
2023/12/12 04:22:26;;;;;;;2.30;0.40;;;;;;;6.78;96.92;100344.81;5070141;28;20032;-71
2023/12/12 04:24:51;;;;;;;2.55;0.45;;;;;;;6.76;96.67;100344.09;5069371;28;20135;-71
2023/12/12 04:27:17;;;;;;;4.03;0.52;;;;;;;6.77;96.88;100347.50;5070697;28;20040;-71
2023/12/12 04:29:42;;;;;;;1.30;0.50;;;;;;;6.84;96.71;100365.03;5071890;28;20110;-71
2023/12/12 04:32:07;;;;;;;1.02;0.30;;;;;;;6.88;96.59;100363.84;5071125;28;20381;-71
2023/12/12 04:34:33;;;;;;;2.63;0.60;;;;;;;6.89;96.87;100357.72;5073038;28;20135;-71
2023/12/12 04:37:01;;;;;;;3.13;0.30;;;;;;;6.85;96.07;100358.91;5072804;28;20033;-71
2023/12/12 04:39:27;;;;;;;4.25;0.57;;;;;;;6.83;97.08;100368.56;5075558;28;20064;-71
2023/12/12 04:41:53;;;;;;;2.45;0.30;;;;;;;6.83;96.92;100354.78;5071139;28;20469;-71
2023/12/12 04:44:18;;;;;;;2.88;0.47;;;;;;;6.80;95.87;100345.50;5073472;28;20029;-71
2023/12/12 04:46:43;;;;;;;1.10;0.30;;;;;;;6.79;95.68;100336.09;5069572;28;20401;-71
2023/12/12 04:49:09;;;;;;;1.13;0.35;;;;;;;6.79;96.01;100353.38;5068362;28;20102;-71
2023/12/12 04:51:34;;;;;;;4.90;0.82;;;;;;;6.80;96.33;100370.56;5101589;28;20028;-71
2023/12/12 04:54:00;;;;;;;2.97;0.35;;;;;;;6.80;95.94;100363.63;5076699;28;20055;-71
2023/12/12 04:56:25;;;;;;;1.50;0.43;;;;;;;6.85;96.09;100376.22;5070170;28;20036;-71
2023/12/12 04:58:51;;;;;;;1.67;0.30;;;;;;;6.92;95.30;100378.19;5072917;28;20017;-71
2023/12/12 05:01:17;;;;;;;1.67;0.40;;;;;;;6.94;95.31;100384.06;5074851;28;20423;-71
2023/12/12 05:03:44;;;;;;;3.85;0.75;;;;;;;6.96;95.65;100389.94;5075682;28;20020;-71
2023/12/12 05:06:09;;;;;;;3.42;0.60;;;;;;;6.95;95.10;100396.06;5074739;28;20513;-71
2023/12/12 05:08:35;;;;;;;3.05;0.43;;;;;;;6.89;95.34;100377.59;5075865;28;20032;-71
2023/12/12 05:11:00;;;;;;;1.20;0.38;;;;;;;6.84;95.63;100370.22;5072727;28;20032;-71
2023/12/12 05:13:26;;;;;;;1.55;0.50;;;;;;;6.79;94.98;100382.69;5075690;28;20032;-71
2023/12/12 05:15:52;;;;;;;1.95;0.45;;;;;;;6.77;94.85;100409.66;5071020;28;20393;-70
2023/12/12 05:18:17;;;;;;;2.60;0.38;;;;;;;6.76;95.39;100408.00;5071833;28;20024;-71
2023/12/12 05:20:43;;;;;;;1.00;0.25;;;;;;;6.77;94.75;100409.66;5072953;28;20024;-70
2023/12/12 05:23:09;;;;;;;1.90;0.70;;;;;;;6.75;94.87;100409.78;5075486;28;20032;-71
2023/12/12 05:25:35;;;;;;;2.03;0.40;;;;;;;6.72;94.69;100401.44;5071808;28;20044;-70
2023/12/12 05:28:01;;;;;;;1.88;0.32;;;;;;;6.68;95.34;100393.06;5077846;28;20039;-71
2023/12/12 05:30:26;;;;;;;4.45;0.40;;;;;;;6.70;95.10;100392.97;5074803;28;20484;-71
2023/12/12 05:32:52;;;;;;;1.90;0.35;;;;;;;6.68;95.72;100406.03;5071628;28;20044;-71
2023/12/12 05:35:17;;;;;;;1.90;0.70;;;;;;;6.68;95.96;100407.78;5072667;28;20036;-71
2023/12/12 05:37:43;;;;;;;1.55;0.47;;;;;;;6.68;95.29;100416.38;5071524;28;20036;-71
2023/12/12 05:40:08;;;;;;;1.35;0.40;;;;;;;6.64;96.36;100409.78;5079989;28;20031;-71
2023/12/12 05:42:34;;;;;;;1.23;0.40;;;;;;;6.62;97.18;100424.63;5071553;28;20185;-71
2023/12/12 05:44:59;;;;;;;0.90;0.50;;;;;;;6.62;97.41;100428.03;5074734;28;20044;-71
2023/12/12 05:47:25;;;;;;;3.13;0.68;;;;;;;6.64;97.18;100426.16;5074157;28;20035;-71
2023/12/12 05:49:50;;;;;;;1.25;0.40;;;;;;;6.63;97.18;100431.44;5070600;28;20032;-70
2023/12/12 05:52:16;;;;;;;1.23;0.40;;;;;;;6.65;97.07;100417.44;5075348;28;20101;-71
2023/12/12 05:54:42;;;;;;;6.57;0.30;;;;;;;6.73;95.80;100418.59;5070442;28;20055;-71
2023/12/12 05:57:08;;;;;;;3.75;0.50;;;;;;;6.73;95.77;100414.25;5070058;28;20154;-71
2023/12/12 05:59:34;;;;;;;1.25;0.35;;;;;;;6.72;96.00;100409.19;5069174;28;20115;-71
2023/12/12 06:02:00;;;;;;;3.65;0.40;;;;;;;6.76;96.07;100416.59;5069005;28;20091;-70
2023/12/12 06:04:27;;;;;;;5.65;0.50;;;;;;;6.78;96.07;100430.25;5064159;28;20107;-71
2023/12/12 06:06:53;;;;;;;6.38;0.60;;;;;;;6.82;95.23;100439.44;5070658;28;20036;-71
2023/12/12 06:09:18;;;;;;;1.05;0.40;;;;;;;6.83;95.24;100441.06;5070073;28;20037;-71
2023/12/12 06:11:44;;;;;;;2.08;0.45;;;;;;;6.90;96.02;100441.41;5070383;28;20050;-71
2023/12/12 06:14:09;;;;;;;3.17;0.40;;;;;;;6.95;95.63;100442.69;5070733;28;20028;-71
2023/12/12 06:16:35;;;;;;;2.00;0.50;;;;;;;7.00;95.02;100444.94;5069720;28;20035;-71
2023/12/12 06:19:04;;;;;;;1.75;0.32;;;;;;;6.98;95.18;100442.47;5071545;28;20079;-71
2023/12/12 06:21:32;;;;;;;2.80;0.50;;;;;;;6.94;94.46;100448.81;5072935;28;20768;-71
2023/12/12 06:24:04;;;;;;;1.77;0.38;;;;;;;6.91;94.03;100448.25;5073045;28;20431;-71
2023/12/12 06:26:31;;;;;;;1.50;0.35;;;;;;;6.88;93.66;100422.59;5073644;28;20396;-71
2023/12/12 06:28:56;;;;;;;1.92;0.47;;;;;;;6.87;93.82;100426.13;5077428;28;20033;-71
2023/12/12 06:31:23;;;;;;;0.82;0.38;;;;;;;6.82;94.28;100412.72;5073508;28;20055;-70
2023/12/12 06:33:50;;;;;;;1.58;0.32;;;;;;;6.85;93.66;100407.28;5073960;28;20102;-71
2023/12/12 06:36:15;;;;;;;2.53;0.30;;;;;;;6.85;93.87;100402.09;5073659;28;20039;-71
2023/12/12 06:38:42;;;;;;;2.30;0.45;;;;;;;6.85;94.66;100404.69;5072568;28;20024;-71
2023/12/12 06:41:09;;;;;;;3.35;0.40;;;;;;;6.90;95.23;100399.97;5073783;28;20031;-71
2023/12/12 06:43:35;;;;;;;4.47;0.50;;;;;;;6.93;95.13;100397.97;5073678;28;20129;-71
2023/12/12 06:46:00;;;;;;;4.13;0.60;;;;;;;6.96;95.65;100404.66;5073669;28;20500;-71
2023/12/12 06:48:26;;;;;;;6.63;0.88;;;;;;;7.00;96.79;100416.44;5072826;28;20473;-71
2023/12/12 06:50:52;;;;;;;3.25;0.98;;;;;;;7.02;96.80;100416.31;5073216;28;20027;-71
2023/12/12 06:53:18;;;;;;;2.38;0.73;;;;;;;7.02;97.96;100437.03;5085113;28;20060;-71
2023/12/12 06:55:44;;;;;;;3.10;0.73;;;;;;;7.01;97.84;100454.34;5073952;28;20034;-71
2023/12/12 06:58:11;;;;;;;1.70;0.45;;;;;;;7.06;97.46;100461.75;5073081;28;20115;-71
2023/12/12 07:00:39;;;;;;;4.32;1.15;;;;;;;7.02;95.82;100461.16;5072821;28;20123;-71
2023/12/12 07:03:05;;;;;;;2.65;0.50;;;;;;;6.97;96.54;100464.13;5072819;28;20024;-71
2023/12/12 07:05:31;;;;;;;2.63;0.40;;;;;;;6.95;96.75;100462.59;5072422;28;20129;-71
2023/12/12 07:07:56;;;;;;;4.20;0.40;;;;;;;6.98;96.26;100470.94;5073046;28;20025;-71
2023/12/12 07:10:21;;;;;;;3.75;0.40;;;;;;;7.02;96.84;100471.53;5072558;28;20060;-71
2023/12/12 07:12:47;;;;;;;7.78;0.80;;;;;;;7.04;96.70;100461.06;5073516;28;20533;-71
2023/12/12 07:15:12;;;;;;;2.35;0.65;;;;;;;7.04;96.03;100464.47;5073051;28;20024;-71
2023/12/12 07:17:38;;;;;;;2.17;0.52;;;;;;;7.06;96.75;100461.75;5072472;28;20067;-71
2023/12/12 07:20:05;;;;;;;4.18;0.50;;;;;;;7.07;97.95;100458.22;5072958;28;20495;-71
2023/12/12 07:22:30;;;;;;;10.57;2.67;;;;;;;7.06;97.11;100452.22;5070808;28;20052;-71
2023/12/12 07:24:56;;;;;;;8.13;2.63;;;;;;;7.12;97.66;100463.81;5069551;28;20485;-71
2023/12/12 07:27:22;;;;;;;10.88;3.50;;;;;;;7.14;97.01;100461.94;5071709;28;20119;-71
2023/12/12 07:29:47;;;;;;;8.35;2.75;;;;;;;7.19;95.67;100478.78;5072793;28;20040;-71
2023/12/12 07:32:13;;;;;;;7.32;1.50;;;;;;;7.23;94.26;100484.53;5072972;28;20040;-70
2023/12/12 07:34:38;;;;;;;2.60;0.80;;;;;;;7.24;93.49;100493.94;5071803;28;20098;-71
2023/12/12 07:37:04;;;;;;;3.05;1.00;;;;;;;7.22;93.79;100477.69;5072812;28;20416;-71
2023/12/12 07:39:30;;;;;;;4.68;1.50;;;;;;;7.26;93.90;100489.47;5072004;28;20163;-71
2023/12/12 07:41:56;;;;;;;4.60;1.02;;;;;;;7.28;93.39;100478.03;5072626;28;20028;-71
2023/12/12 07:44:22;;;;;;;3.00;0.75;;;;;;;7.27;92.92;100476.38;5067141;28;20107;-71
2023/12/12 07:46:47;;;;;;;1.60;0.57;;;;;;;7.24;93.27;100479.22;5072340;28;20111;-71
2023/12/12 07:49:13;;;;;;;1.08;0.40;;;;;;;7.25;92.85;100480.88;5072342;28;20115;-71
2023/12/12 07:51:38;;;;;;;4.43;0.90;;;;;;;7.27;93.14;100483.34;5070409;28;20032;-71
2023/12/12 07:54:05;;;;;;;3.10;0.55;;;;;;;7.31;93.15;100482.97;5072176;28;20530;-71
2023/12/12 07:56:31;;;;;;;1.65;0.50;;;;;;;7.32;93.50;100478.63;5062846;28;20021;-71
2023/12/12 07:58:57;;;;;;;2.17;0.60;;;;;;;7.33;93.40;100467.31;5071802;28;20436;-71
2023/12/12 08:01:22;;;;;;;2.10;0.55;;;;;;;7.31;93.33;100474.38;5071995;28;20032;-71
2023/12/12 08:03:47;;;;;;;1.95;0.68;;;;;;;7.37;93.95;100470.47;5072519;28;20033;-71
2023/12/12 08:06:13;;;;;;;2.17;0.60;;;;;;;7.36;92.24;100472.25;5072788;28;20049;-71
2023/12/12 08:08:38;;;;;;;1.38;0.35;;;;;;;7.38;92.85;100475.53;5071208;28;20032;-71
2023/12/12 08:11:04;;;;;;;2.08;0.30;;;;;;;7.40;92.80;100476.22;5094885;28;20502;-71
2023/12/12 08:13:30;;;;;;;1.13;0.40;;;;;;;7.46;93.16;100475.75;5070198;28;20398;-71
2023/12/12 08:15:56;;;;;;;2.55;0.75;;;;;;;7.51;94.46;100483.97;5072751;28;20029;-71
2023/12/12 08:18:21;;;;;;;1.38;0.30;;;;;;;7.62;95.02;100477.88;5070779;28;20032;-68
2023/12/12 08:20:47;;;;;;;1.15;0.25;;;;;;;7.72;95.69;100476.19;5071720;28;20024;-68
2023/12/12 08:23:13;;;;;;;5.75;0.47;;;;;;;7.75;94.44;100482.91;5072318;28;20537;-68
2023/12/12 08:25:38;;;;;;;2.42;0.35;;;;;;;7.81;92.96;100485.00;5071649;28;20028;-67
2023/12/12 08:28:04;;;;;;;2.33;0.60;;;;;;;7.86;92.80;100478.47;5072073;28;20024;-68
2023/12/12 08:30:30;;;;;;;1.75;0.47;;;;;;;7.85;92.60;100476.00;5069963;28;20053;-68
2023/12/12 08:32:55;;;;;;;1.30;0.38;;;;;;;7.76;91.23;100476.78;5072359;28;20037;-68
2023/12/12 08:35:21;;;;;;;3.40;0.90;;;;;;;7.77;91.68;100478.41;5070478;28;20504;-67
2023/12/12 08:37:47;;;;;;;2.08;0.50;;;;;;;7.74;91.29;100478.66;5071870;28;20035;-67
2023/12/12 08:40:13;;;;;;;4.22;0.55;;;;;;;7.74;92.04;100478.66;5071426;28;20116;-68
2023/12/12 08:42:39;;;;;;;2.90;0.52;;;;;;;7.76;92.61;100489.72;5069654;28;20111;-68
2023/12/12 08:45:05;;;;;;;2.05;0.70;;;;;;;7.76;92.64;100471.59;5071377;28;20016;-68
2023/12/12 08:47:31;;;;;;;4.40;1.00;;;;;;;7.76;92.01;100466.41;5070833;28;20031;-68
2023/12/12 08:49:56;;;;;;;1.40;0.40;;;;;;;7.78;91.89;100456.72;5071523;28;20562;-71
2023/12/12 08:52:22;;;;;;;2.20;0.50;;;;;;;7.83;92.85;100459.75;5069472;28;20020;-71
2023/12/12 08:54:47;;;;;;;3.17;0.90;;;;;;;7.85;91.65;100450.06;5070183;28;20032;-71
2023/12/12 08:57:15;;;;;;;1.50;0.60;;;;;;;7.84;91.99;100440.66;5071595;28;20107;-71
2023/12/12 08:59:41;;;;;;;5.15;0.50;;;;;;;7.83;91.95;100446.78;5069447;28;20430;-71
2023/12/12 09:02:06;;;;;;;3.47;0.43;;;;;;;7.87;91.69;100448.19;5069421;28;20051;-71
2023/12/12 09:04:34;;;;;;;1.92;0.55;;;;;;;7.96;92.11;100452.59;5069563;28;20067;-71
2023/12/12 09:07:00;;;;;;;3.88;0.80;;;;;;;8.01;92.59;100458.25;5070642;28;20115;-71
2023/12/12 09:09:31;;;;;;;1.80;0.55;;;;;;;8.04;91.29;100457.94;5069816;28;20103;-71
2023/12/12 09:11:57;;;;;;;2.03;0.98;;;;;;;8.08;91.56;100450.72;5070827;28;20401;-71
2023/12/12 09:14:23;;;;;;;1.83;0.73;;;;;;;8.06;90.78;100450.03;5068874;28;20115;-71
2023/12/12 09:16:48;;;;;;;4.88;0.75;;;;;;;8.13;90.95;100461.56;5070000;28;20501;-71
2023/12/12 09:19:16;;;;;;;3.58;1.33;;;;;;;8.18;92.31;100457.63;5100613;28;20070;-70
2023/12/12 09:21:42;;;;;;;1.27;0.43;;;;;;;8.17;90.23;100458.56;5070459;28;20389;-71
2023/12/12 09:24:07;;;;;;;2.67;0.60;;;;;;;8.15;91.04;100457.88;5066563;28;20028;-70
2023/12/12 09:26:33;;;;;;;4.25;0.88;;;;;;;8.14;90.85;100461.44;5068469;28;20043;-70
2023/12/12 09:28:58;;;;;;;4.10;0.50;;;;;;;8.14;90.68;100464.03;5068632;28;20025;-70
2023/12/12 09:31:29;;;;;;;2.60;0.80;;;;;;;8.19;91.36;100454.06;5066223;28;20119;-70
2023/12/12 09:33:55;;;;;;;5.10;1.73;;;;;;;8.25;90.59;100452.75;5069119;28;20098;-70
2023/12/12 09:36:21;;;;;;;4.85;1.10;;;;;;;8.28;90.56;100449.88;5069969;28;20123;-70
2023/12/12 09:38:46;;;;;;;10.45;1.73;;;;;;;8.28;90.79;100452.47;5067847;28;21131;-70
2023/12/12 09:41:20;;;;;;;5.70;1.80;;;;;;;8.26;90.81;100456.97;5068584;28;20524;-70
2023/12/12 09:43:48;;;;;;;4.18;1.45;;;;;;;8.28;91.54;100442.09;5070431;28;20024;-70
2023/12/12 09:46:14;;;;;;;2.80;1.27;;;;;;;8.31;90.64;100440.06;5067222;28;20119;-70
2023/12/12 09:48:42;;;;;;;3.80;0.57;;;;;;;8.35;90.10;100450.22;5068814;28;20056;-70
2023/12/12 09:51:08;;;;;;;1.42;0.60;;;;;;;8.31;89.96;100441.84;5069837;28;20032;-70
2023/12/12 09:53:35;;;;;;;1.35;0.43;;;;;;;8.31;90.38;100447.84;5069266;28;20436;-70
2023/12/12 09:56:04;;;;;;;2.03;0.40;;;;;;;8.26;89.30;100444.00;5069497;28;20070;-70
2023/12/12 09:58:31;;;;;;;1.05;0.40;;;;;;;8.24;89.28;100449.31;5068859;28;20033;-71
2023/12/12 10:01:00;;;;;;;3.78;0.55;;;;;;;8.20;91.15;100444.53;5070030;28;20056;-71
2023/12/12 10:03:26;;;;;;;5.03;0.85;;;;;;;8.15;90.11;100451.88;5067904;28;20028;-71
2023/12/12 10:05:53;;;;;;;1.42;0.43;;;;;;;8.11;89.71;100433.13;5068835;28;20050;-71
2023/12/12 10:08:19;;;;;;;2.42;0.40;;;;;;;8.15;89.88;100425.91;5067605;28;20021;-70
2023/12/12 10:10:44;;;;;;;2.47;0.68;;;;;;;8.16;90.11;100424.97;5069516;28;20037;-71
2023/12/12 10:13:10;;;;;;;3.63;0.70;;;;;;;8.12;89.69;100429.59;5069363;28;20028;-71
2023/12/12 10:15:36;;;;;;;3.50;0.60;;;;;;;8.12;89.66;100418.38;5068526;28;22678;-71
2023/12/12 10:18:01;;;;;;;1.50;0.60;;;;;;;8.12;90.26;100420.97;5069475;28;20492;-71
2023/12/12 10:20:30;;;;;;;3.65;0.82;;;;;;;8.12;90.13;100413.19;5068261;28;20497;-71
2023/12/12 10:23:04;;;;;;;2.08;0.68;;;;;;;8.12;90.18;100406.22;5069693;28;20028;-71
2023/12/12 10:25:34;;;;;;;1.77;0.68;;;;;;;8.17;90.23;100411.03;5066987;28;20478;-71
2023/12/12 10:28:00;;;;;;;3.20;0.57;;;;;;;8.13;90.54;100402.69;5059360;28;20041;-71
2023/12/12 10:30:29;;;;;;;1.88;0.50;;;;;;;8.19;90.81;100399.56;5068972;28;20028;-70
2023/12/12 10:32:55;;;;;;;1.58;0.50;;;;;;;8.21;91.40;100400.25;5069394;28;20032;-71
2023/12/12 10:35:23;;;;;;;3.40;0.77;;;;;;;8.22;90.89;100406.28;5068432;28;20052;-71
2023/12/12 10:37:49;;;;;;;3.80;0.50;;;;;;;8.22;91.31;100407.09;5069500;28;20032;-71
2023/12/12 10:40:21;;;;;;;2.95;0.73;;;;;;;8.24;91.82;100410.38;5069940;28;20481;-71
2023/12/12 10:42:47;;;;;;;2.88;0.50;;;;;;;8.18;91.02;100404.91;5070060;28;20037;-71
2023/12/12 10:45:14;;;;;;;2.35;0.60;;;;;;;8.13;90.53;100402.69;5069991;28;20454;-70
2023/12/12 10:47:49;;;;;;;3.53;1.08;;;;;;;8.09;89.73;100396.09;5070468;28;20182;-70
2023/12/12 10:50:17;;;;;;;6.75;1.48;;;;;;;8.12;89.30;100395.84;5071575;28;20028;-71
2023/12/12 10:52:44;;;;;;;4.88;1.27;;;;;;;8.14;88.65;100393.94;5069108;28;20036;-71
2023/12/12 10:55:11;;;;;;;4.72;0.77;;;;;;;8.18;88.89;100402.31;5068230;28;20032;-70
2023/12/12 10:57:42;;;;;;;1.33;0.43;;;;;;;8.20;88.89;100388.25;5068475;28;20060;-71
2023/12/12 11:00:14;;;;;;;2.90;1.00;;;;;;;8.20;88.82;100393.44;5068156;28;20722;-71
2023/12/12 11:02:43;;;;;;;3.40;0.80;;;;;;;8.22;89.20;100395.91;5069233;28;20111;-70
2023/12/12 11:05:11;;;;;;;2.72;0.60;;;;;;;8.19;87.94;100404.75;5071132;28;20096;-71
2023/12/12 11:07:38;;;;;;;1.90;0.50;;;;;;;8.18;89.41;100407.50;5102988;28;20033;-71
2023/12/12 11:10:08;;;;;;;3.05;0.60;;;;;;;8.14;90.10;100403.50;5073420;28;20032;-71
2023/12/12 11:12:37;;;;;;;3.08;0.73;;;;;;;8.13;90.01;100392.31;5071975;28;20052;-71
2023/12/12 11:15:05;;;;;;;2.47;0.60;;;;;;;8.15;90.69;100387.81;5072277;28;20040;-71
2023/12/12 11:17:31;;;;;;;1.15;0.50;;;;;;;8.18;90.27;100376.34;5071794;28;20033;-71
2023/12/12 11:19:56;;;;;;;4.43;0.50;;;;;;;8.15;89.86;100374.00;5072734;28;20522;-71
2023/12/12 11:22:39;;;;;;;5.40;0.65;;;;;;;8.17;91.28;100362.53;5072611;28;20036;-71
2023/12/12 11:25:11;;;;;;;2.45;0.70;;;;;;;8.25;92.03;100352.34;5071113;28;20032;-71